createdAt,value
2019-04-20T00:01:52.683Z,14.03
2019-04-20T00:04:30.988Z,11.15
2019-04-20T00:06:59.173Z,12.15
2019-04-20T00:09:34.870Z,13.78
2019-04-20T00:12:12.796Z,12.63
2019-04-20T00:14:40.525Z,16.25
2019-04-20T00:17:11.815Z,12.13
2019-04-20T00:19:48.617Z,16.55
2019-04-20T00:22:24.605Z,11.83
2019-04-20T00:25:04.024Z,13.08
2019-04-20T00:27:55.893Z,11.85
2019-04-20T00:30:28.776Z,13.32
2019-04-20T00:32:54.692Z,11.35
2019-04-20T00:35:13.136Z,12.18
2019-04-20T00:37:44.735Z,11.53
2019-04-20T00:40:17.121Z,15.90
2019-04-20T00:45:28.337Z,12.63
2019-04-20T00:48:02.445Z,12.15
2019-04-20T00:50:44.386Z,12.95
2019-04-20T00:53:13.345Z,12.43
2019-04-20T00:55:36.088Z,12.82
2019-04-20T00:58:17.304Z,13.50
2019-04-20T01:01:04.111Z,13.85
2019-04-20T01:03:32.338Z,17.25
2019-04-20T01:06:19.181Z,13.83
2019-04-20T01:08:30.371Z,16.02
2019-04-20T01:11:02.707Z,14.35
2019-04-20T01:13:42.201Z,13.20
2019-04-20T01:16:21.855Z,15.50
2019-04-20T01:18:43.695Z,16.02
2019-04-20T01:21:19.852Z,15.32
2019-04-20T01:23:56.195Z,12.93
2019-04-20T01:26:24.277Z,14.13
2019-04-20T01:29:08.722Z,14.53
2019-04-20T01:31:36.316Z,18.98
2019-04-20T01:34:15.326Z,12.33
2019-04-20T01:36:50.799Z,15.13
2019-04-20T01:39:20.590Z,12.75
2019-04-20T01:41:43.460Z,10.95
2019-04-20T01:44:18.961Z,14.83
2019-04-20T01:46:53.502Z,12.03
2019-04-20T01:49:25.662Z,10.65
2019-04-20T01:52:04.914Z,13.78
2019-04-20T01:54:45.275Z,15.05
2019-04-20T01:57:26.193Z,13.35
2019-04-20T02:00:11.428Z,13.70
2019-04-20T02:02:45.064Z,13.22
2019-04-20T02:05:16.927Z,11.40
2019-04-20T02:07:49.338Z,15.15
2019-04-20T02:10:21.868Z,14.13
2019-04-20T02:12:59.374Z,17.12
2019-04-20T02:15:35.211Z,12.37
2019-04-20T02:18:16.459Z,16.50
2019-04-20T02:20:54.541Z,13.80
2019-04-20T02:23:22.365Z,18.95
2019-04-20T02:25:41.903Z,15.23
2019-04-20T02:28:27.610Z,13.25
2019-04-20T02:31:23.055Z,15.65
2019-04-20T02:34:15.688Z,14.30
2019-04-20T02:37:00.200Z,15.30
2019-04-20T02:42:26.491Z,13.98
2019-04-20T02:49:40.316Z,16.07
2019-04-20T02:54:46.763Z,14.68
2019-04-20T02:57:43.447Z,14.80
2019-04-20T03:02:17.236Z,17.25
2019-04-20T03:04:40.251Z,13.72
2019-04-20T03:07:14.945Z,17.00
2019-04-20T03:09:56.279Z,16.77
2019-04-20T03:12:34.454Z,14.43
2019-04-20T03:14:58.337Z,16.57
2019-04-20T03:17:42.654Z,18.40
2019-04-20T03:20:03.515Z,14.35
2019-04-20T03:23:07.338Z,14.73
2019-04-20T03:25:23.816Z,16.37
2019-04-20T03:28:01.271Z,14.03
2019-04-20T03:31:18.404Z,12.98
2019-04-20T03:33:23.820Z,16.90
2019-04-20T03:35:43.564Z,16.77
2019-04-20T03:38:14.493Z,22.37
2019-04-20T03:40:42.720Z,16.00
2019-04-20T03:43:02.687Z,15.75
2019-04-20T03:45:43.921Z,13.83
2019-04-20T03:48:26.617Z,12.93
2019-04-20T03:51:04.644Z,19.48
2019-04-20T03:53:34.456Z,18.67
2019-04-20T03:56:31.007Z,15.78
2019-04-20T03:58:55.385Z,13.53
2019-04-20T04:02:07.511Z,14.85
2019-04-20T04:04:29.845Z,15.95
2019-04-20T04:06:47.076Z,13.40
2019-04-20T04:09:25.880Z,16.05
2019-04-20T04:11:58.507Z,17.05
2019-04-20T04:14:22.142Z,17.07
2019-04-20T04:16:57.498Z,14.00
2019-04-20T04:19:32.852Z,17.87
2019-04-20T04:22:12.677Z,19.05
2019-04-20T04:24:44.855Z,16.15
2019-04-20T04:27:28.590Z,17.55
2019-04-20T04:29:56.934Z,17.80
2019-04-20T04:32:51.374Z,17.27
2019-04-20T04:35:03.072Z,17.70
2019-04-20T04:37:40.511Z,15.00
2019-04-20T04:40:26.458Z,14.70
2019-04-20T04:42:52.529Z,13.70
2019-04-20T04:45:07.504Z,13.48
2019-04-20T04:47:36.766Z,17.35
2019-04-20T04:50:16.412Z,14.38
2019-04-20T04:52:52.480Z,17.32
2019-04-20T04:55:27.349Z,12.98
2019-04-20T04:57:51.568Z,11.43
2019-04-20T05:00:29.068Z,12.70
2019-04-20T05:03:06.963Z,10.82
2019-04-20T05:05:50.409Z,15.08
2019-04-20T05:08:15.492Z,13.93
2019-04-20T05:10:41.619Z,14.95
2019-04-20T05:13:13.742Z,11.68
2019-04-20T05:15:58.314Z,13.80
2019-04-20T05:18:45.041Z,10.82
2019-04-20T05:21:19.041Z,10.82
2019-04-20T05:23:41.377Z,12.00
2019-04-20T05:26:25.838Z,12.25
2019-04-20T05:28:51.769Z,10.85
2019-04-20T05:31:25.620Z,10.75
2019-04-20T05:36:46.486Z,20.20
2019-04-20T05:39:26.958Z,16.45
2019-04-20T05:41:53.220Z,12.93
2019-04-20T05:44:22.126Z,14.15
2019-04-20T05:47:06.980Z,11.50
2019-04-20T05:49:34.923Z,12.35
2019-04-20T05:52:24.092Z,14.28
2019-04-20T05:54:47.586Z,14.10
2019-04-20T05:57:26.336Z,16.27
2019-04-20T06:00:05.287Z,11.97
2019-04-20T06:02:27.674Z,13.58
2019-04-20T06:05:04.378Z,12.13
2019-04-20T06:07:40.381Z,13.50
2019-04-20T06:10:19.076Z,11.05
2019-04-20T06:12:40.354Z,14.87
2019-04-20T06:15:15.556Z,17.73
2019-04-20T06:18:00.991Z,11.87
2019-04-20T06:20:36.042Z,14.55
2019-04-20T06:23:34.532Z,9.98
2019-04-20T06:26:20.658Z,12.37
2019-04-20T06:28:35.252Z,12.55
2019-04-20T06:31:18.051Z,12.93
2019-04-20T06:34:27.388Z,11.08
2019-04-20T06:36:47.276Z,12.05
2019-04-20T06:39:20.422Z,12.98
2019-04-20T06:44:30.321Z,12.37
2019-04-20T06:47:04.376Z,13.13
2019-04-20T06:49:32.927Z,8.33
2019-04-20T06:52:23.064Z,14.18
2019-04-20T06:55:01.634Z,20.40
2019-04-20T06:57:35.669Z,9.83
2019-04-20T07:00:11.407Z,10.30
2019-04-20T07:02:44.392Z,9.10
2019-04-20T07:08:07.014Z,9.83
2019-04-20T07:10:26.242Z,6.92
2019-04-20T07:12:53.305Z,4.97
2019-04-20T07:15:29.162Z,7.72
2019-04-20T07:18:10.102Z,8.55
2019-04-20T07:20:48.566Z,7.37
2019-04-20T07:23:24.340Z,6.97
2019-04-20T07:25:52.803Z,7.25
2019-04-20T07:28:29.180Z,8.15
2019-04-20T07:30:55.277Z,7.42
2019-04-20T07:33:34.922Z,7.45
2019-04-20T07:36:04.101Z,5.22
2019-04-20T07:38:40.126Z,4.42
2019-04-20T07:41:16.499Z,5.37
2019-04-20T07:43:56.847Z,6.47
2019-04-20T07:46:26.334Z,6.95
2019-04-20T07:48:50.622Z,6.35
2019-04-20T07:51:12.523Z,5.03
2019-04-20T07:53:57.523Z,6.17
2019-04-20T07:56:30.539Z,4.28
2019-04-20T07:58:50.898Z,7.58
2019-04-20T08:02:05.953Z,5.33
2019-04-20T08:04:29.054Z,5.75
2019-04-20T08:06:51.916Z,7.80
2019-04-20T08:09:28.879Z,4.33
2019-04-20T08:12:22.074Z,8.98
2019-04-20T08:14:56.895Z,4.70
2019-04-20T08:19:54.865Z,8.85
2019-04-20T08:22:37.046Z,4.78
2019-04-20T08:24:55.210Z,5.12
2019-04-20T08:27:29.777Z,10.98
2019-04-20T08:30:23.028Z,5.97
2019-04-20T08:32:59.526Z,8.43
2019-04-20T08:35:42.554Z,5.55
2019-04-20T08:38:38.340Z,9.23
2019-04-20T08:40:46.281Z,4.50
2019-04-20T08:43:30.254Z,6.42
2019-04-20T08:45:50.944Z,7.78
2019-04-20T08:51:02.328Z,7.70
2019-04-20T08:53:30.677Z,6.60
2019-04-20T08:55:57.105Z,6.05
2019-04-20T08:58:18.108Z,7.83
2019-04-20T09:00:56.515Z,5.83
2019-04-20T09:03:31.664Z,6.30
2019-04-20T09:06:08.606Z,7.28
2019-04-20T09:08:46.643Z,7.78
2019-04-20T09:11:19.754Z,8.13
2019-04-20T09:13:48.001Z,7.17
2019-04-20T09:16:15.270Z,5.90
2019-04-20T09:18:56.906Z,9.08
2019-04-20T09:21:29.730Z,8.30
2019-04-20T09:24:21.754Z,6.35
2019-04-20T09:26:43.351Z,5.80
2019-04-20T09:29:12.775Z,8.75
2019-04-20T09:31:47.050Z,7.25
2019-04-20T09:34:26.027Z,5.97
2019-04-20T09:37:09.588Z,5.95
2019-04-20T09:39:33.861Z,8.95
2019-04-20T09:42:04.027Z,5.50
2019-04-20T09:44:41.928Z,5.90
2019-04-20T09:47:10.397Z,6.03
2019-04-20T09:49:51.954Z,5.45
2019-04-20T09:52:30.066Z,7.12
2019-04-20T09:55:03.181Z,6.08
2019-04-20T09:57:38.045Z,5.03
2019-04-20T10:00:12.158Z,6.67
2019-04-20T10:02:32.593Z,6.30
2019-04-20T10:05:02.299Z,6.25
2019-04-20T10:07:36.953Z,6.67
2019-04-20T10:10:22.745Z,5.50
2019-04-20T10:12:42.269Z,5.03
2019-04-20T10:15:19.504Z,7.10
2019-04-20T10:17:47.796Z,5.45
2019-04-20T10:20:27.688Z,4.58
2019-04-20T10:22:52.763Z,5.90
2019-04-20T10:25:24.569Z,8.18
2019-04-20T10:27:56.149Z,6.08
2019-04-20T10:30:30.515Z,6.00
2019-04-20T10:33:03.575Z,6.62
2019-04-20T10:35:35.943Z,12.75
2019-04-20T10:38:09.605Z,5.40
2019-04-20T10:40:50.732Z,5.28
2019-04-20T10:43:14.632Z,5.03
2019-04-20T10:45:46.827Z,4.27
2019-04-20T10:48:19.337Z,7.62
2019-04-20T10:50:50.961Z,4.60
2019-04-20T10:53:23.773Z,7.67
2019-04-20T10:55:55.799Z,7.87
2019-04-20T10:58:27.581Z,5.47
2019-04-20T11:00:59.715Z,4.95
2019-04-20T11:03:32.318Z,6.08
2019-04-20T11:06:04.852Z,5.50
2019-04-20T11:08:36.554Z,7.35
2019-04-20T11:11:14.809Z,4.10
2019-04-20T11:13:41.558Z,5.90
2019-04-20T11:16:14.769Z,5.93
2019-04-20T11:18:47.281Z,3.02
2019-04-20T11:21:19.611Z,5.60
2019-04-20T11:23:52.096Z,6.12
2019-04-20T11:28:55.939Z,4.25
2019-04-20T11:31:37.203Z,6.80
2019-04-20T11:34:01.023Z,6.45
2019-04-20T11:36:33.259Z,4.15
2019-04-20T11:39:07.159Z,7.50
2019-04-20T11:41:39.078Z,5.47
2019-04-20T11:44:11.702Z,5.78
2019-04-20T11:46:44.922Z,7.35
2019-04-20T11:49:17.508Z,4.47
2019-04-20T11:51:49.815Z,4.42
2019-04-20T11:54:22.110Z,5.85
2019-04-20T11:59:25.390Z,4.28
2019-04-20T12:02:04.643Z,4.97
2019-04-20T12:04:44.221Z,4.95
2019-04-20T12:07:11.055Z,5.58
2019-04-20T12:12:26.740Z,3.30
2019-04-20T12:14:46.877Z,3.52
2019-04-20T12:17:19.627Z,5.13
2019-04-20T12:19:52.986Z,6.45
2019-04-20T12:22:26.141Z,3.02
2019-04-20T12:24:58.197Z,8.33
2019-04-20T12:27:30.503Z,3.92
2019-04-20T12:30:02.117Z,6.75
2019-04-20T12:32:42.302Z,5.05
2019-04-20T12:35:12.091Z,5.33
2019-04-20T12:37:45.105Z,7.83
2019-04-20T12:40:19.924Z,5.50
2019-04-20T12:42:53.069Z,4.35
2019-04-20T12:45:25.920Z,4.85
2019-04-20T12:47:57.664Z,4.03
2019-04-20T12:50:29.819Z,3.75
2019-04-20T12:53:02.358Z,3.17
2019-04-20T12:58:05.342Z,5.65
2019-04-20T13:00:49.683Z,4.60
2019-04-20T13:03:23.567Z,8.30
2019-04-20T13:05:56.121Z,8.18
2019-04-20T13:11:04.458Z,3.52
2019-04-20T13:13:38.661Z,5.25
2019-04-20T13:16:24.005Z,5.78
2019-04-20T13:18:57.457Z,3.15
2019-04-20T13:21:29.258Z,5.12
2019-04-20T13:24:01.313Z,5.50
2019-04-20T13:26:35.157Z,7.03
2019-04-20T13:29:06.889Z,9.35
2019-04-20T13:31:39.998Z,9.18
2019-04-20T13:34:13.313Z,5.20
2019-04-20T13:36:46.278Z,5.97
2019-04-20T13:39:18.107Z,5.72
2019-04-20T13:41:59.820Z,6.08
2019-04-20T13:44:24.029Z,5.83
2019-04-20T13:46:56.754Z,5.60
2019-04-20T13:49:29.131Z,5.47
2019-04-20T13:52:02.303Z,3.40
2019-04-20T13:54:35.834Z,4.53
2019-04-20T13:57:10.018Z,4.60
2019-04-20T13:59:48.055Z,6.55
2019-04-20T14:02:30.903Z,6.08
2019-04-20T14:05:04.648Z,6.15
2019-04-20T14:07:37.949Z,5.87
2019-04-20T14:10:09.626Z,5.62
2019-04-20T14:12:52.390Z,4.83
2019-04-20T14:15:15.254Z,4.58
2019-04-20T14:17:47.023Z,5.45
2019-04-20T14:20:21.632Z,5.83
2019-04-20T14:22:52.631Z,4.90
2019-04-20T14:25:24.917Z,13.38
2019-04-20T14:27:57.326Z,3.62
2019-04-20T14:30:29.226Z,6.42
2019-04-20T14:33:01.107Z,2.77
2019-04-20T14:35:34.646Z,5.95
2019-04-20T14:38:06.097Z,5.62
2019-04-20T14:40:38.084Z,3.65
2019-04-20T14:43:10.947Z,4.28
2019-04-20T14:45:43.098Z,4.22
2019-04-20T14:48:14.603Z,8.48
2019-04-20T14:50:47.714Z,3.20
2019-04-20T14:53:19.851Z,4.47
2019-04-20T14:55:51.571Z,15.03
2019-04-20T14:58:42.175Z,4.58
2019-04-20T15:01:32.531Z,4.22
2019-04-20T15:04:09.993Z,5.75
2019-04-20T15:06:39.777Z,5.00
2019-04-20T15:09:12.745Z,7.42
2019-04-20T15:11:46.298Z,10.08
2019-04-20T15:14:18.696Z,8.33
2019-04-20T15:16:50.876Z,8.80
2019-04-20T15:19:25.403Z,11.35
2019-04-20T15:21:59.804Z,4.40
2019-04-20T15:24:31.607Z,5.22
2019-04-20T15:27:04.656Z,4.17
2019-04-20T15:29:36.464Z,6.30
2019-04-20T15:32:08.592Z,9.23
2019-04-20T15:34:40.492Z,4.80
2019-04-20T15:37:12.360Z,5.10
2019-04-20T15:39:45.218Z,6.83
2019-04-20T15:42:17.132Z,4.62
2019-04-20T15:44:49.336Z,6.78
2019-04-20T15:47:20.763Z,7.28
2019-04-20T15:49:53.691Z,6.17
2019-04-20T15:55:01.854Z,7.10
2019-04-20T15:57:31.650Z,4.10
2019-04-20T16:00:06.553Z,5.00
2019-04-20T16:02:43.382Z,4.12
2019-04-20T16:05:24.017Z,4.28
2019-04-20T16:08:00.182Z,3.45
2019-04-20T16:10:30.730Z,5.33
2019-04-20T16:13:15.579Z,4.53
2019-04-20T16:15:37.831Z,5.12
2019-04-20T16:18:10.210Z,8.00
2019-04-20T16:20:52.194Z,6.22
2019-04-20T16:23:16.514Z,6.25
2019-04-20T16:25:53.412Z,7.53
2019-04-20T16:28:25.704Z,7.92
2019-04-20T16:30:57.615Z,9.15
2019-04-20T16:33:30.507Z,11.00
2019-04-20T16:36:04.696Z,8.65
2019-04-20T16:38:37.249Z,8.03
2019-04-20T16:43:43.233Z,9.18
2019-04-20T16:46:16.865Z,9.75
2019-04-20T16:48:48.184Z,6.72
2019-04-20T16:51:20.825Z,9.25
2019-04-20T16:53:53.852Z,6.95
2019-04-20T16:56:26.547Z,8.13
2019-04-20T16:59:05.449Z,10.03
2019-04-20T17:01:31.738Z,14.38
2019-04-20T17:04:07.812Z,7.87
2019-04-20T17:06:40.108Z,10.58
2019-04-20T17:09:12.650Z,6.08
2019-04-20T17:11:45.691Z,8.00
2019-04-20T17:14:19.077Z,5.72
2019-04-20T17:16:51.309Z,7.10
2019-04-20T17:19:23.856Z,9.15
2019-04-20T17:21:57.254Z,5.25
2019-04-20T17:24:29.359Z,7.85
2019-04-20T17:27:08.775Z,6.60
2019-04-20T17:29:44.504Z,6.50
2019-04-20T17:32:19.279Z,5.47
2019-04-20T17:35:04.676Z,5.05
2019-04-20T17:37:27.387Z,5.33
2019-04-20T17:40:19.057Z,9.40
2019-04-20T17:42:46.241Z,6.15
2019-04-20T17:45:14.126Z,5.97
2019-04-20T17:47:57.805Z,10.90
2019-04-20T17:50:31.807Z,7.60
2019-04-20T17:53:04.083Z,9.10
2019-04-20T17:55:40.376Z,9.08
2019-04-20T17:58:19.408Z,8.38
2019-04-20T18:00:58.257Z,11.65
2019-04-20T18:04:05.873Z,12.55
2019-04-20T18:06:30.377Z,18.90
2019-04-20T18:08:53.795Z,11.15
2019-04-20T18:11:21.313Z,11.78
2019-04-20T18:13:57.906Z,12.50
2019-04-20T18:16:46.573Z,16.20
2019-04-20T18:19:11.589Z,12.40
2019-04-20T18:21:41.493Z,15.45
2019-04-20T18:24:24.227Z,10.50
2019-04-20T18:27:03.214Z,14.50
2019-04-20T18:29:41.007Z,10.88
2019-04-20T18:31:55.594Z,13.53
2019-04-20T18:34:36.181Z,11.53
2019-04-20T18:37:12.049Z,12.23
2019-04-20T18:39:50.572Z,12.10
2019-04-20T18:42:24.340Z,10.18
2019-04-20T18:45:11.363Z,14.07
2019-04-20T18:47:39.179Z,14.78
2019-04-20T18:50:07.740Z,14.60
2019-04-20T18:52:29.475Z,11.55
2019-04-20T18:55:01.683Z,11.90
2019-04-20T18:57:37.919Z,12.15
2019-04-20T19:00:20.019Z,14.07
2019-04-20T19:02:50.967Z,15.08
2019-04-20T19:05:19.980Z,22.52
2019-04-20T19:07:59.294Z,16.65
2019-04-20T19:10:30.857Z,14.83
2019-04-20T19:13:06.244Z,11.30
2019-04-20T19:15:56.596Z,16.77
2019-04-20T19:18:27.156Z,12.60
2019-04-20T19:20:55.093Z,13.78
2019-04-20T19:23:27.151Z,13.43
2019-04-20T19:26:04.419Z,7.08
2019-04-20T19:28:42.231Z,12.15
2019-04-20T19:31:21.364Z,13.25
2019-04-20T19:34:01.835Z,10.98
2019-04-20T19:36:24.490Z,12.75
2019-04-20T19:39:01.387Z,14.95
2019-04-20T19:41:32.124Z,18.65
2019-04-20T19:44:07.398Z,14.85
2019-04-20T19:49:11.297Z,13.20
2019-04-20T19:52:02.727Z,11.53
2019-04-20T19:54:32.779Z,10.05
2019-04-20T19:56:54.085Z,9.78
2019-04-20T19:59:23.476Z,8.63
2019-04-20T20:01:47.749Z,8.48
2019-04-20T20:04:19.723Z,8.45
2019-04-20T20:06:59.058Z,13.48
2019-04-20T20:09:25.906Z,10.98
2019-04-20T20:12:04.995Z,10.23
2019-04-20T20:14:36.789Z,12.65
2019-04-20T20:17:27.331Z,12.35
2019-04-20T20:20:06.963Z,15.48
2019-04-20T20:22:21.659Z,22.98
2019-04-20T20:24:45.191Z,13.00
2019-04-20T20:27:25.837Z,16.20
2019-04-20T20:29:59.493Z,16.62
2019-04-20T20:32:41.849Z,14.23
2019-04-20T20:35:05.571Z,15.58
2019-04-20T20:37:39.974Z,16.50
2019-04-20T20:40:16.126Z,17.73
2019-04-20T20:42:52.720Z,18.62
2019-04-20T20:45:23.631Z,19.75
2019-04-20T20:48:05.001Z,21.42
2019-04-20T20:50:36.462Z,15.03
2019-04-20T20:53:06.100Z,15.85
2019-04-20T20:55:34.457Z,15.60
2019-04-20T20:58:09.795Z,16.05
2019-04-20T21:00:47.185Z,18.92
2019-04-20T21:03:14.594Z,18.20
2019-04-20T21:05:41.830Z,15.80
2019-04-20T21:08:13.558Z,17.37
2019-04-20T21:10:46.388Z,15.85
2019-04-20T21:13:19.205Z,22.87
2019-04-20T21:15:58.013Z,16.82
2019-04-20T21:18:44.841Z,20.00
2019-04-20T21:21:11.755Z,15.23
2019-04-20T21:23:42.789Z,19.92
2019-04-20T21:26:11.479Z,16.17
2019-04-20T21:28:41.945Z,20.32
2019-04-20T21:31:20.409Z,16.82
2019-04-20T21:33:47.210Z,20.05
2019-04-20T21:36:24.602Z,18.23
2019-04-20T21:38:53.526Z,16.95
2019-04-20T21:41:27.865Z,17.35
2019-04-20T21:44:01.149Z,16.87
2019-04-20T21:46:39.632Z,18.32
2019-04-20T21:49:23.661Z,17.67
2019-04-20T21:51:47.555Z,32.50
2019-04-20T21:54:13.971Z,90.90
2019-04-20T21:56:55.014Z,86.78
2019-04-20T21:59:26.941Z,72.95
2019-04-20T22:02:00.019Z,78.85
2019-04-20T22:04:27.190Z,108.00
2019-04-20T22:07:00.368Z,71.70
2019-04-20T22:09:40.068Z,62.30
2019-04-20T22:12:07.767Z,33.20
2019-04-20T22:14:39.828Z,26.35
2019-04-20T22:17:14.198Z,29.50
2019-04-20T22:20:02.545Z,22.70
2019-04-20T22:22:39.779Z,26.20
2019-04-20T22:25:11.045Z,24.12
2019-04-20T22:27:31.469Z,33.70
2019-04-20T22:30:00.007Z,27.22
2019-04-20T22:32:36.684Z,32.83
2019-04-20T22:35:12.627Z,41.75
2019-04-20T22:38:06.364Z,35.58
2019-04-20T22:40:34.776Z,36.50
2019-04-20T22:43:06.385Z,30.23
2019-04-20T22:45:46.636Z,21.12
2019-04-20T22:48:15.722Z,24.12
2019-04-20T22:51:08.312Z,28.17
2019-04-20T22:53:37.614Z,24.40
2019-04-20T22:56:16.732Z,28.98
2019-04-20T22:58:40.394Z,28.35
2019-04-20T23:01:04.533Z,28.60
2019-04-20T23:03:34.702Z,37.75
2019-04-20T23:06:06.934Z,30.88
2019-04-20T23:08:38.811Z,19.12
2019-04-20T23:11:18.923Z,24.05
2019-04-20T23:13:47.008Z,29.02
2019-04-20T23:16:17.483Z,20.37
2019-04-20T23:18:49.987Z,34.23
2019-04-20T23:21:21.785Z,20.95
2019-04-20T23:24:02.696Z,22.35
2019-04-20T23:26:33.488Z,29.40
2019-04-20T23:29:02.550Z,21.70
2019-04-20T23:31:34.642Z,23.73
2019-04-20T23:34:10.120Z,24.12
2019-04-20T23:36:45.387Z,20.08
2019-04-20T23:39:15.277Z,24.10
2019-04-20T23:41:52.678Z,23.27
2019-04-20T23:44:23.141Z,27.13
2019-04-20T23:47:06.214Z,26.80
2019-04-20T23:49:53.339Z,26.95
2019-04-20T23:52:32.501Z,25.05
2019-04-20T23:54:49.073Z,23.77
2019-04-20T23:57:15.663Z,27.95
2019-04-20T23:59:49.877Z,27.05
